Terminal Aerodrome Forecast
Issued by NWS

Current Version | Previous Version | Graphics & Text | Print | Product List | Glossary On
Versions: 1 2 3 4 5 6 7 8 9 10 11 12 13 14 15 16 17 18 19 20 21 22 23 24 25
000
FTUS41 KILN 270256 AAA
TAFLUK
TAF AMD
KLUK 270256Z 2703/2724 VRB03KT P6SM SCT045 OVC250
     FM270800 20004KT P6SM VCSH SCT040 OVC200
     FM271400 22005KT P6SM SHRA VCTS SCT040CB OVC090
     FM271800 21007KT P6SM SHRA VCTS OVC030CB
     FM272200 22006KT 6SM SHRA OVC025=

USA.gov is the U.S. government's official web portal to all federal, state and local government web resources and services.